createdAt,value
2019-02-11T00:00:16.454Z,1.4
2019-02-11T00:01:06.511Z,1.3
2019-02-11T00:01:56.306Z,1.3
2019-02-11T00:02:46.624Z,1.3
2019-02-11T00:03:36.411Z,1.3
2019-02-11T00:04:26.469Z,1.3
2019-02-11T00:05:16.524Z,1.2
2019-02-11T00:06:06.866Z,1.2
2019-02-11T00:06:56.648Z,1.2
2019-02-11T00:07:46.414Z,1.2
2019-02-11T00:08:37.031Z,1.2
2019-02-11T00:09:27.101Z,1.1
2019-02-11T00:10:17.153Z,1.1
2019-02-11T00:11:07.224Z,1.1
2019-02-11T00:11:56.714Z,1.1
2019-02-11T00:12:46.773Z,1.1
2019-02-11T00:13:37.387Z,1.1
2019-02-11T00:14:27.176Z,1.1
2019-02-11T00:15:17.225Z,1.1
2019-02-11T00:16:07.563Z,1.1
2019-02-11T00:16:57.668Z,1.1
2019-02-11T00:17:47.675Z,1.1
2019-02-11T00:18:37.777Z,1.1
2019-02-11T00:19:27.801Z,1.1
2019-02-11T00:20:17.861Z,1.1
2019-02-11T00:21:07.910Z,1.1
2019-02-11T00:21:58.000Z,1.1
2019-02-11T00:22:47.748Z,1.1
2019-02-11T00:23:38.072Z,1.1
2019-02-11T00:24:27.875Z,1
2019-02-11T00:25:17.642Z,1
2019-02-11T00:26:07.992Z,1
2019-02-11T00:26:58.339Z,0.9
2019-02-11T00:27:48.105Z,0.9
2019-02-11T00:28:38.434Z,0.9
2019-02-11T00:29:28.215Z,0.9
2019-02-11T00:30:18.550Z,0.9
2019-02-11T00:31:08.666Z,0.9
2019-02-11T00:31:58.717Z,0.9
2019-02-11T00:32:48.934Z,0.9
2019-02-11T00:33:38.791Z,0.9
2019-02-11T00:34:28.630Z,0.9
2019-02-11T00:35:18.913Z,0.9
2019-02-11T00:36:08.962Z,0.9
2019-02-11T00:36:58.767Z,0.8
2019-02-11T00:37:49.354Z,0.8
2019-02-11T00:38:38.857Z,0.8
2019-02-11T00:39:29.334Z,0.8
2019-02-11T00:40:19.257Z,0.8
2019-02-11T00:41:08.769Z,0.8
2019-02-11T00:41:59.089Z,0.8
2019-02-11T00:42:49.151Z,0.8
2019-02-11T00:43:39.492Z,0.7
2019-02-11T00:44:29.264Z,0.7
2019-02-11T00:45:19.321Z,0.6
2019-02-11T00:46:09.377Z,0.6
2019-02-11T00:46:59.710Z,0.6
2019-02-11T00:47:49.768Z,0.6
2019-02-11T00:48:39.844Z,0.6
2019-02-11T00:49:29.611Z,0.6
2019-02-11T00:50:19.681Z,0.5
2019-02-11T00:51:09.448Z,0.5
2019-02-11T00:51:59.797Z,0.5
2019-02-11T00:52:50.131Z,0.4
2019-02-11T00:53:39.353Z,0.4
2019-02-11T00:54:29.957Z,0.4
2019-02-11T00:55:20.073Z,0.4
2019-02-11T00:56:10.348Z,0.4
2019-02-11T00:57:00.140Z,0.4
2019-02-11T00:57:50.481Z,0.3
2019-02-11T00:58:39.971Z,0.3
2019-02-11T00:59:30.606Z,0.3
2019-02-11T01:00:20.387Z,0.3
2019-02-11T01:01:10.715Z,0.3
2019-02-11T01:02:00.758Z,0.3
2019-02-11T01:02:50.545Z,0.3
2019-02-11T01:03:40.883Z,0.3
2019-02-11T01:04:30.665Z,0.3
2019-02-11T01:05:20.730Z,0.3
2019-02-11T01:06:10.790Z,0.3
2019-02-11T01:07:00.906Z,0.3
2019-02-11T01:07:51.187Z,0.3
2019-02-11T01:08:40.675Z,0.3
2019-02-11T01:09:31.010Z,0.2
2019-02-11T01:10:21.135Z,0.2
2019-02-11T01:11:11.142Z,0.2
2019-02-11T01:12:01.184Z,0.2
2019-02-11T01:12:51.525Z,0.3
2019-02-11T01:13:41.312Z,0.2
2019-02-11T01:14:30.824Z,0.2
2019-02-11T01:15:21.427Z,0.2
2019-02-11T01:16:11.767Z,0.2
2019-02-11T01:17:01.547Z,0.2
2019-02-11T01:17:51.939Z,0.2
2019-02-11T01:18:41.658Z,0.2
2019-02-11T01:19:31.722Z,0.2
2019-02-11T01:20:21.769Z,0.1
2019-02-11T01:21:12.100Z,0.2
2019-02-11T01:22:01.890Z,0.2
2019-02-11T01:22:52.224Z,0.2
2019-02-11T01:23:42.019Z,0.2
2019-02-11T01:24:32.349Z,0.2
2019-02-11T01:25:21.845Z,0.2
2019-02-11T01:26:11.906Z,0.2
2019-02-11T01:27:02.517Z,0.2
2019-02-11T01:27:52.576Z,0.2
2019-02-11T01:28:42.634Z,0.2
2019-02-11T01:29:32.418Z,0.2
2019-02-11T01:30:22.745Z,0.2
2019-02-11T01:31:12.250Z,0.2
2019-02-11T01:32:02.854Z,0.2
2019-02-11T01:32:52.923Z,0.3
2019-02-11T01:33:42.709Z,0.2
2019-02-11T01:34:32.781Z,0.2
2019-02-11T01:35:23.103Z,0.2
2019-02-11T01:36:12.883Z,0.2
2019-02-11T01:37:02.943Z,0.3
2019-02-11T01:37:53.041Z,0.3
2019-02-11T01:38:43.058Z,0.3
2019-02-11T01:39:33.110Z,0.3
2019-02-11T01:40:23.174Z,0.3
2019-02-11T01:41:13.233Z,0.3
2019-02-11T01:42:03.567Z,0.3
2019-02-11T01:42:53.620Z,0.3
2019-02-11T01:43:43.680Z,0.3
2019-02-11T01:44:33.460Z,0.3
2019-02-11T01:45:23.525Z,0.3
2019-02-11T01:46:13.868Z,0.3
2019-02-11T01:47:03.417Z,0.3
2019-02-11T01:47:53.710Z,0.3
2019-02-11T01:48:44.034Z,0.3
2019-02-11T01:49:34.102Z,0.3
2019-02-11T01:50:24.159Z,0.3
2019-02-11T01:51:14.207Z,0.3
2019-02-11T01:52:03.718Z,0.3
2019-02-11T01:52:54.339Z,0.2
2019-02-11T01:53:44.435Z,0.2
2019-02-11T01:54:34.452Z,0.2
2019-02-11T01:55:24.232Z,0.2
2019-02-11T01:56:14.074Z,0.2
2019-02-11T01:57:04.624Z,0.2
2019-02-11T01:57:54.680Z,0.2
2019-02-11T01:58:44.515Z,0.2
2019-02-11T01:59:34.802Z,0.2
2019-02-11T02:00:24.579Z,0.2
2019-02-11T02:01:14.644Z,0.3
2019-02-11T02:02:04.697Z,0.3
2019-02-11T02:02:55.029Z,0.3
2019-02-11T02:03:44.821Z,0.3
2019-02-11T02:04:35.141Z,0.3
2019-02-11T02:05:24.929Z,0.3
2019-02-11T02:06:15.264Z,0.4
2019-02-11T02:07:05.321Z,0.4
2019-02-11T02:07:55.385Z,0.4
2019-02-11T02:08:45.151Z,0.4
2019-02-11T02:09:35.508Z,0.4
2019-02-11T02:10:25.284Z,0.4
2019-02-11T02:11:15.336Z,0.3
2019-02-11T02:12:05.406Z,0.3
2019-02-11T02:12:54.903Z,0.3
2019-02-11T02:13:46.790Z,0.3
2019-02-11T02:14:35.571Z,0.3
2019-02-11T02:15:25.638Z,0.2
2019-02-11T02:16:15.964Z,0.2
2019-02-11T02:17:05.472Z,0.2
2019-02-11T02:17:56.077Z,0.2
2019-02-11T02:18:45.864Z,0.2
2019-02-11T02:19:35.640Z,0.1
2019-02-11T02:20:26.251Z,0.1
2019-02-11T02:21:16.322Z,0.1
2019-02-11T02:22:05.827Z,0.1
2019-02-11T02:22:56.435Z,0.1
2019-02-11T02:23:46.495Z,0.1
2019-02-11T02:24:36.273Z,0
2019-02-11T02:25:26.610Z,0
2019-02-11T02:26:16.390Z,0
2019-02-11T02:27:06.459Z,0
2019-02-11T02:27:56.509Z,-0.1
2019-02-11T02:28:46.830Z,0
2019-02-11T02:29:36.894Z,-0.1
2019-02-11T02:30:26.991Z,0
2019-02-11T02:31:16.747Z,-0.1
2019-02-11T02:32:06.835Z,-0.1
2019-02-11T02:32:56.871Z,-0.1
2019-02-11T02:33:47.209Z,-0.1
2019-02-11T02:34:37.026Z,-0.1
2019-02-11T02:35:27.042Z,-0.1
2019-02-11T02:36:16.849Z,-0.1
2019-02-11T02:37:07.439Z,-0.1
2019-02-11T02:37:57.511Z,-0.1
2019-02-11T02:38:47.555Z,-0.2
2019-02-11T02:39:37.324Z,-0.2
2019-02-11T02:40:27.744Z,-0.2
2019-02-11T02:41:17.471Z,-0.2
2019-02-11T02:42:07.809Z,-0.2
2019-02-11T02:42:57.867Z,-0.2
2019-02-11T02:43:57.575Z,-0.2
2019-02-11T02:44:37.702Z,-0.2
2019-02-11T02:45:27.743Z,-0.3
2019-02-11T02:46:17.570Z,-0.3
2019-02-11T02:47:07.873Z,-0.3
2019-02-11T02:47:58.210Z,-0.3
2019-02-11T02:48:48.261Z,-0.3
2019-02-11T02:49:38.047Z,-0.3
2019-02-11T02:50:28.374Z,-0.3
2019-02-11T02:51:18.176Z,-0.2
2019-02-11T02:52:08.513Z,-0.2
2019-02-11T02:52:58.553Z,-0.2
2019-02-11T02:53:48.338Z,-0.2
2019-02-11T02:54:38.406Z,-0.2
2019-02-11T02:55:28.447Z,-0.2
2019-02-11T02:56:18.530Z,-0.2
2019-02-11T02:57:08.585Z,-0.2
2019-02-11T02:57:58.915Z,-0.2
2019-02-11T02:58:48.993Z,-0.2
2019-02-11T02:59:38.740Z,-0.2
2019-02-11T03:00:29.078Z,-0.2
2019-02-11T03:01:19.400Z,-0.2
2019-02-11T03:02:08.946Z,-0.2
2019-02-11T03:02:58.993Z,-0.2
2019-02-11T03:03:48.771Z,-0.2
2019-02-11T03:04:39.106Z,-0.2
2019-02-11T03:08:11.461Z,-0.1
2019-02-11T03:09:01.260Z,-0.1
2019-02-11T03:09:51.613Z,-0.1
2019-02-11T03:10:41.633Z,-0.2
2019-02-11T03:11:31.714Z,-0.2
2019-02-11T03:12:21.757Z,-0.2
2019-02-11T03:13:12.255Z,-0.2
2019-02-11T03:14:08.175Z,-0.2
2019-02-11T03:14:51.939Z,-0.3
2019-02-11T03:15:41.981Z,-0.3
2019-02-11T03:16:31.777Z,-0.3
2019-02-11T03:17:22.101Z,-0.3
2019-02-11T03:18:12.180Z,-0.3
2019-02-11T03:19:01.670Z,-0.3
2019-02-11T03:19:52.002Z,-0.3
2019-02-11T03:20:42.053Z,-0.3
2019-02-11T03:21:32.391Z,-0.3
2019-02-11T03:22:22.446Z,-0.3
2019-02-11T03:23:11.973Z,-0.4
2019-02-11T03:24:02.568Z,-0.4
2019-02-11T03:24:52.354Z,-0.4
2019-02-11T03:25:42.448Z,-0.4
2019-02-11T03:26:32.739Z,-0.4
2019-02-11T03:27:22.826Z,-0.4
2019-02-11T03:28:12.585Z,-0.4
2019-02-11T03:29:02.921Z,-0.4
2019-02-11T03:29:52.806Z,-0.4
2019-02-11T03:30:42.791Z,-0.4
2019-02-11T03:31:33.169Z,-0.5
2019-02-11T03:32:23.198Z,-0.5
2019-02-11T03:33:13.075Z,-0.5
2019-02-11T03:34:03.323Z,-0.5
2019-02-11T03:34:53.043Z,-0.6
2019-02-11T03:35:43.108Z,-0.6
2019-02-11T03:36:33.181Z,-0.6
2019-02-11T03:37:23.497Z,-0.6
2019-02-11T03:38:13.285Z,-0.6
2019-02-11T03:39:03.631Z,-0.6
2019-02-11T03:39:53.423Z,-0.6
2019-02-11T03:40:43.735Z,-0.6
2019-02-11T03:41:33.796Z,-0.7
2019-02-11T03:42:23.848Z,-0.7
2019-02-11T03:43:13.911Z,-0.8
2019-02-11T03:44:03.972Z,-0.8
2019-02-11T03:44:53.745Z,-0.8
2019-02-11T03:45:44.085Z,-0.8
2019-02-11T03:46:34.151Z,-0.8
2019-02-11T03:47:24.203Z,-0.8
2019-02-11T03:48:13.990Z,-0.8
2019-02-11T03:49:03.867Z,-0.9
2019-02-11T03:49:53.892Z,-0.8
2019-02-11T03:50:43.681Z,-0.9
2019-02-11T03:51:33.726Z,-0.9
2019-02-11T03:52:23.809Z,-0.9
2019-02-11T03:53:14.638Z,-0.9
2019-02-11T03:54:04.188Z,-0.9
2019-02-11T03:54:54.749Z,-0.9
2019-02-11T03:59:05.022Z,-1
2019-02-11T03:59:54.865Z,-1
2019-02-11T04:00:45.143Z,-1
2019-02-11T04:01:34.916Z,-1
2019-02-11T04:02:24.983Z,-1.1
2019-02-11T04:03:15.033Z,-1.1
2019-02-11T04:04:05.118Z,-1.1
2019-02-11T04:04:55.427Z,-1.1
2019-02-11T04:05:44.941Z,-1.1
2019-02-11T04:06:35.559Z,-1.1
2019-02-11T04:07:25.651Z,-1.1
2019-02-11T04:08:15.666Z,-1.1
2019-02-11T04:09:05.730Z,-1.1
2019-02-11T04:09:55.838Z,-1.1
2019-02-11T04:10:45.843Z,-1.1
2019-02-11T04:11:35.623Z,-1.1
2019-02-11T04:12:25.972Z,-1.1
2019-02-11T04:13:15.477Z,-1.1
2019-02-11T04:14:05.808Z,-1.1
2019-02-11T04:14:56.181Z,-1.1
2019-02-11T04:15:46.208Z,-1.1
2019-02-11T04:16:35.963Z,-1.2
2019-02-11T04:17:26.056Z,-1.2
2019-02-11T04:18:16.378Z,-1.1
2019-02-11T04:19:06.466Z,-1.1
2019-02-11T04:19:56.233Z,-1.2
2019-02-11T04:20:48.554Z,-1.1
2019-02-11T04:21:36.633Z,-1.1
2019-02-11T04:22:26.385Z,-1.1
2019-02-11T04:23:16.719Z,-1.1
2019-02-11T04:24:06.831Z,-1.2
2019-02-11T04:24:56.835Z,-1.2
2019-02-11T04:25:46.895Z,-1.1
2019-02-11T04:26:36.667Z,-1.1
2019-02-11T04:27:26.737Z,-1.2
2019-02-11T04:28:17.067Z,-1.2
2019-02-11T04:29:07.134Z,-1.2
2019-02-11T04:29:57.182Z,-1.2
2019-02-11T04:30:47.316Z,-1.2
2019-02-11T04:31:37.327Z,-1.2
2019-02-11T04:32:27.104Z,-1.2
2019-02-11T04:33:17.162Z,-1.3
2019-02-11T04:34:07.476Z,-1.2
2019-02-11T04:34:57.261Z,-1.2
2019-02-11T04:35:47.599Z,-1.2
2019-02-11T04:36:37.711Z,-1.3
2019-02-11T04:37:27.706Z,-1.2
2019-02-11T04:38:17.781Z,-1.3
2019-02-11T04:39:07.822Z,-1.2
2019-02-11T04:39:57.365Z,-1.2
2019-02-11T04:40:47.679Z,-1.2
2019-02-11T04:41:37.714Z,-1.2
2019-02-11T04:42:27.806Z,-1.2
2019-02-11T04:43:18.134Z,-1.2
2019-02-11T04:44:08.191Z,-1.2
2019-02-11T04:44:57.960Z,-1.2
2019-02-11T04:45:48.006Z,-1.2
2019-02-11T04:46:38.347Z,-1.2
2019-02-11T04:47:27.861Z,-1.2
2019-02-11T04:48:18.484Z,-1.2
2019-02-11T04:49:07.986Z,-1.1
2019-02-11T04:49:58.599Z,-1.1
2019-02-11T04:50:48.659Z,-1.1
2019-02-11T04:51:38.421Z,-1.1
2019-02-11T04:52:28.755Z,-1.1
2019-02-11T04:53:18.546Z,-1.1
2019-02-11T04:54:08.950Z,-1.1
2019-02-11T04:54:58.948Z,-1.2
2019-02-11T04:55:49.015Z,-1.2
2019-02-11T04:56:39.062Z,-1.2
2019-02-11T04:57:29.158Z,-1.1
2019-02-11T04:58:18.910Z,-1.2
2019-02-11T04:59:08.983Z,-1.2
2019-02-11T04:59:59.296Z,-1.2
2019-02-11T05:00:49.073Z,-1.2
2019-02-11T05:01:39.147Z,-1.2
2019-02-11T05:02:29.199Z,-1.2
2019-02-11T05:03:19.530Z,-1.2
2019-02-11T05:04:09.591Z,-1.3
2019-02-11T05:04:59.660Z,-1.3
2019-02-11T05:05:49.708Z,-1.3
2019-02-11T05:06:39.832Z,-1.3
2019-02-11T05:07:29.888Z,-1.3
2019-02-11T05:08:19.990Z,-1.3
2019-02-11T05:09:09.967Z,-1.3
2019-02-11T05:10:00.025Z,-1.3
2019-02-11T05:10:50.047Z,-1.3
2019-02-11T05:11:40.132Z,-1.3
2019-02-11T05:12:30.187Z,-1.3
2019-02-11T05:13:20.247Z,-1.3
2019-02-11T05:14:10.288Z,-1.3
2019-02-11T05:15:00.357Z,-1.3
2019-02-11T05:15:50.472Z,-1.3
2019-02-11T05:16:40.186Z,-1.3
2019-02-11T05:17:30.527Z,-1.3
2019-02-11T05:18:20.574Z,-1.3
2019-02-11T05:19:10.634Z,-1.3
2019-02-11T05:19:59.877Z,-1.3
2019-02-11T05:20:50.783Z,-1.3
2019-02-11T05:21:40.541Z,-1.3
2019-02-11T05:22:30.587Z,-1.3
2019-02-11T05:23:20.943Z,-1.3
2019-02-11T05:24:10.995Z,-1.3
2019-02-11T05:25:01.177Z,-1.3
2019-02-11T05:25:51.190Z,-1.3
2019-02-11T05:26:41.172Z,-1.3
2019-02-11T05:27:30.694Z,-1.3
2019-02-11T05:28:21.325Z,-1.3
2019-02-11T05:29:11.345Z,-1.4
2019-02-11T05:30:01.401Z,-1.4
2019-02-11T05:30:51.463Z,-1.4
2019-02-11T05:31:41.525Z,-1.4
2019-02-11T05:32:31.088Z,-1.4
2019-02-11T05:33:21.801Z,-1.3
2019-02-11T05:34:11.699Z,-1.4
2019-02-11T05:35:02.136Z,-1.4
2019-02-11T05:35:51.798Z,-1.4
2019-02-11T05:36:41.856Z,-1.4
2019-02-11T05:37:31.926Z,-1.4
2019-02-11T05:38:21.712Z,-1.4
2019-02-11T05:39:11.761Z,-1.4
2019-02-11T05:40:02.025Z,-1.4
2019-02-11T05:40:52.160Z,-1.4
2019-02-11T05:41:42.214Z,-1.4
2019-02-11T05:42:31.990Z,-1.4
2019-02-11T05:43:22.341Z,-1.4
2019-02-11T05:44:12.115Z,-1.4
2019-02-11T05:45:02.228Z,-1.4
2019-02-11T05:45:52.492Z,-1.4
2019-02-11T05:46:42.555Z,-1.4
2019-02-11T05:47:32.365Z,-1.4
2019-02-11T05:48:22.128Z,-1.5
2019-02-11T05:49:12.455Z,-1.5
2019-02-11T05:50:02.827Z,-1.5
2019-02-11T05:50:52.582Z,-1.5
2019-02-11T05:51:42.950Z,-1.5
2019-02-11T05:52:32.959Z,-1.5
2019-02-11T05:53:22.749Z,-1.5
2019-02-11T05:54:13.100Z,-1.5
2019-02-11T05:55:03.173Z,-1.5
2019-02-11T05:55:53.210Z,-1.5
2019-02-11T05:56:43.259Z,-1.5
2019-02-11T05:57:33.327Z,-1.5
2019-02-11T05:58:23.381Z,-1.5
2019-02-11T05:59:13.422Z,-1.5
2019-02-11T06:00:03.663Z,-1.5
2019-02-11T06:00:53.536Z,-1.5
2019-02-11T06:01:43.637Z,-1.4
2019-02-11T06:02:33.389Z,-1.4
2019-02-11T06:03:23.772Z,-1.4
2019-02-11T06:04:13.499Z,-1.4
2019-02-11T06:06:11.041Z,-1.4
2019-02-11T06:07:01.354Z,-1.4
2019-02-11T06:07:51.417Z,-1.3
2019-02-11T06:08:41.216Z,-1.3
2019-02-11T06:09:31.533Z,-1.3
2019-02-11T06:10:21.324Z,-1.3
2019-02-11T06:11:11.378Z,-1.3
2019-02-11T06:12:01.708Z,-1.2
2019-02-11T06:12:51.761Z,-1.2
2019-02-11T06:13:41.816Z,-1.2
2019-02-11T06:14:31.602Z,-1.1
2019-02-11T06:15:21.931Z,-1.1
2019-02-11T06:16:11.742Z,-1.1
2019-02-11T06:17:02.058Z,-1.1
2019-02-11T06:19:32.220Z,-0.9
2019-02-11T06:20:22.333Z,-0.8
2019-02-11T06:21:12.333Z,-0.8
2019-02-11T06:22:02.400Z,-0.6
2019-02-11T06:22:52.462Z,-0.6
2019-02-11T06:23:42.515Z,-0.4
2019-02-11T06:24:32.570Z,-0.4
2019-02-11T06:25:22.694Z,-0.3
2019-02-11T06:26:12.690Z,-0.1
2019-02-11T06:27:02.356Z,0.2
2019-02-11T06:27:52.812Z,0.5
2019-02-11T06:28:42.887Z,0.9
2019-02-11T06:29:32.930Z,1.5
2019-02-11T06:30:22.717Z,2
2019-02-11T06:31:12.774Z,2.6
2019-02-11T06:32:03.185Z,3.2
2019-02-11T06:32:52.888Z,3.8
2019-02-11T06:33:42.956Z,4.3
2019-02-11T06:34:35.138Z,4.8
2019-02-11T06:35:23.082Z,5.4
2019-02-11T06:36:14.294Z,5.9
2019-02-11T06:37:03.184Z,6.3
2019-02-11T06:37:53.515Z,6.8
2019-02-11T06:38:43.311Z,7.2
2019-02-11T06:39:33.627Z,7.6
2019-02-11T06:40:23.713Z,8
2019-02-11T06:41:13.747Z,8.3
2019-02-11T06:42:03.529Z,8.6
2019-02-11T06:42:53.579Z,8.8
2019-02-11T06:43:43.639Z,9
2019-02-11T06:44:34.021Z,9.2
2019-02-11T06:45:24.029Z,9.3
2019-02-11T06:46:14.094Z,9.4
2019-02-11T06:47:04.153Z,9.5
2019-02-11T06:47:54.226Z,9.6
2019-02-11T06:48:43.998Z,9.6
2019-02-11T06:49:34.058Z,9.7
2019-02-11T06:50:24.392Z,9.7
2019-02-11T06:51:13.906Z,9.8
2019-02-11T06:52:04.216Z,9.8
2019-02-11T06:52:54.343Z,9.8
2019-02-11T06:53:44.333Z,9.8
2019-02-11T06:54:34.723Z,9.8
2019-02-11T06:55:24.181Z,9.8
2019-02-11T06:56:13.980Z,9.8
2019-02-11T06:57:05.987Z,9.8
2019-02-11T06:57:54.906Z,9.8
2019-02-11T06:58:44.695Z,9.8
2019-02-11T06:59:35.023Z,9.8
2019-02-11T07:00:25.098Z,9.7
2019-02-11T07:01:14.585Z,9.7
2019-02-11T07:02:05.195Z,9.7
2019-02-11T07:02:54.440Z,9.7
2019-02-11T07:03:44.773Z,9.6
2019-02-11T07:06:11.255Z,9.6
2019-02-11T07:07:01.307Z,9.6
2019-02-11T07:07:51.365Z,9.7
2019-02-11T07:08:41.422Z,9.7
2019-02-11T07:09:31.487Z,9.7
2019-02-11T07:10:21.542Z,9.8
2019-02-11T07:11:11.092Z,9.9
2019-02-11T07:12:01.114Z,10
2019-02-11T07:12:51.715Z,10.2
2019-02-11T07:13:41.505Z,10.6
2019-02-11T07:14:31.835Z,11
2019-02-11T07:15:23.779Z,11.5
2019-02-11T07:16:11.950Z,11.9
2019-02-11T07:17:01.733Z,12.3
2019-02-11T07:17:52.075Z,12.6
2019-02-11T07:18:41.859Z,12.8
2019-02-11T07:19:32.170Z,12.9
2019-02-11T07:20:22.239Z,13.1
2019-02-11T07:21:12.014Z,13.3
2019-02-11T07:22:02.349Z,13.4
2019-02-11T07:22:52.419Z,13.6
2019-02-11T07:23:42.188Z,13.7
2019-02-11T07:24:32.526Z,13.8
2019-02-11T07:25:22.590Z,13.8
2019-02-11T07:26:12.636Z,13.9
2019-02-11T07:27:02.418Z,13.9
2019-02-11T07:27:52.760Z,14
2019-02-11T07:28:42.831Z,14.1
2019-02-11T07:29:32.591Z,14.3
2019-02-11T07:30:22.662Z,14.6
2019-02-11T07:31:12.942Z,14.8
2019-02-11T07:32:03.045Z,14.9
2019-02-11T07:32:53.111Z,15.2
2019-02-11T07:33:42.625Z,15.4
2019-02-11T07:34:32.946Z,15.7
2019-02-11T07:35:23.288Z,15.9
2019-02-11T07:36:13.345Z,16.3
2019-02-11T07:37:03.411Z,16.6
2019-02-11T07:37:53.512Z,16.8
2019-02-11T07:39:33.589Z,17.2
2019-02-11T07:40:23.385Z,17.3
2019-02-11T07:41:13.397Z,17.4
2019-02-11T07:42:05.706Z,17.6
2019-02-11T07:42:53.239Z,17.6
2019-02-11T07:43:43.898Z,17.8
2019-02-11T07:44:33.360Z,18.1
2019-02-11T07:45:31.950Z,18.5
2019-02-11T07:46:14.023Z,19.1
2019-02-11T07:47:03.797Z,19.4
2019-02-11T07:47:53.597Z,19.8
2019-02-11T07:48:43.925Z,20.1
2019-02-11T07:49:33.983Z,20.4
2019-02-11T07:50:24.324Z,20.6
2019-02-11T07:51:14.370Z,20.8
2019-02-11T07:52:04.430Z,21.1
2019-02-11T07:52:54.209Z,21.4
2019-02-11T07:53:44.542Z,21.8
2019-02-11T07:54:34.652Z,22.2
2019-02-11T07:55:24.374Z,22.8
2019-02-11T07:56:14.772Z,23.4
2019-02-11T07:57:04.800Z,24.1
2019-02-11T07:57:54.557Z,24.8
2019-02-11T07:58:44.612Z,25.3
2019-02-11T07:59:34.961Z,25.8
2019-02-11T08:00:25.012Z,26.1
2019-02-11T08:01:14.792Z,26.3
2019-02-11T08:02:05.122Z,26.4
2019-02-11T08:02:55.189Z,26.4
2019-02-11T08:03:44.974Z,26.5
2019-02-11T08:04:35.296Z,26.5
2019-02-11T08:05:25.089Z,26.6
2019-02-11T08:06:15.426Z,26.6
2019-02-11T08:07:04.978Z,26.6
2019-02-11T08:07:55.531Z,26.6
2019-02-11T08:08:45.587Z,26.7
2019-02-11T08:09:35.646Z,26.8
2019-02-11T08:10:25.698Z,27.1
2019-02-11T08:11:15.764Z,27.4
2019-02-11T08:12:55.597Z,28.3
2019-02-11T08:13:45.651Z,29
2019-02-11T08:14:35.986Z,29.8
2019-02-11T08:15:25.780Z,30.6
2019-02-11T08:16:16.117Z,31.3
2019-02-11T08:17:06.161Z,31.6
2019-02-11T08:17:56.964Z,31.9
2019-02-11T08:18:46.280Z,32
2019-02-11T08:19:36.343Z,32
2019-02-11T08:20:26.410Z,31.9
2019-02-11T08:21:16.458Z,31.8
2019-02-11T08:22:06.248Z,31.6
2019-02-11T08:22:56.295Z,31.4
2019-02-11T08:23:46.349Z,31.3
2019-02-11T08:24:36.692Z,31.2
2019-02-11T08:25:26.489Z,31.3
2019-02-11T08:26:16.790Z,31.4
2019-02-11T08:27:06.842Z,31.6
2019-02-11T08:27:56.379Z,32.1
2019-02-11T08:28:46.975Z,32.5
2019-02-11T08:29:36.785Z,33
2019-02-11T08:30:26.820Z,33.6
2019-02-11T08:31:17.145Z,34.3
2019-02-11T08:32:07.190Z,35.2
2019-02-11T08:32:57.267Z,36.3
2019-02-11T08:33:47.310Z,37.4
2019-02-11T08:34:37.364Z,38.6
2019-02-11T08:35:28.960Z,39.8
2019-02-11T08:36:17.432Z,41.1
2019-02-11T08:37:07.604Z,42.2
2019-02-11T08:37:57.329Z,43.2
2019-02-11T08:38:47.654Z,44
2019-02-11T08:39:37.719Z,44.6
2019-02-11T08:40:27.222Z,44.9
2019-02-11T08:41:17.839Z,45.1
2019-02-11T08:42:07.899Z,45.6
2019-02-11T08:42:57.679Z,46.1
2019-02-11T08:43:48.007Z,46.4
2019-02-11T08:44:37.792Z,46.8
2019-02-11T08:45:28.129Z,47.1
2019-02-11T08:46:17.914Z,47.5
2019-02-11T08:47:07.969Z,47.9
2019-02-11T08:47:58.029Z,48.5
2019-02-11T08:48:48.286Z,48.9
2019-02-11T08:49:38.251Z,49.4
2019-02-11T08:50:28.644Z,49.9
2019-02-11T08:51:18.521Z,50.3
2019-02-11T08:52:08.301Z,50.8
2019-02-11T08:52:58.366Z,51.2
2019-02-11T08:53:48.421Z,51.8
2019-02-11T08:54:38.761Z,52.6
2019-02-11T08:55:28.815Z,53.3
2019-02-11T08:56:18.873Z,53.6
2019-02-11T08:57:08.648Z,53.8
2019-02-11T08:57:58.978Z,53.6
2019-02-11T08:58:48.770Z,53.3
2019-02-11T08:59:38.828Z,52.9
2019-02-11T09:00:28.893Z,52.4
2019-02-11T09:02:09.274Z,51.5
2019-02-11T09:02:59.348Z,51
2019-02-11T09:03:49.118Z,50.4
2019-02-11T09:04:39.460Z,49.9
2019-02-11T09:05:29.243Z,49.4
2019-02-11T09:06:19.475Z,48.8
2019-02-11T09:07:09.082Z,48.3
2019-02-11T09:08:01.391Z,47.9
2019-02-11T09:08:49.740Z,47.6
2019-02-11T09:09:39.518Z,47.6
2019-02-11T09:10:29.595Z,47.9
2019-02-11T09:11:19.660Z,48.4
2019-02-11T09:12:09.994Z,49.1
2019-02-11T09:13:00.025Z,49.9
2019-02-11T09:13:49.810Z,50.8
2019-02-11T09:14:39.893Z,51.8
2019-02-11T09:15:30.207Z,52.6
2019-02-11T09:16:20.265Z,53.4
2019-02-11T09:17:12.443Z,54.1
2019-02-11T09:18:00.385Z,54.9
2019-02-11T09:18:50.155Z,55.6
2019-02-11T09:19:40.494Z,56.1
2019-02-11T09:20:30.271Z,56.4
2019-02-11T09:21:20.332Z,56.6
2019-02-11T09:22:10.379Z,56.4
2019-02-11T09:23:00.172Z,56.1
2019-02-11T09:23:50.794Z,55.8
2019-02-11T09:24:40.559Z,55.4
2019-02-11T09:25:30.897Z,55.1
2019-02-11T09:26:20.687Z,54.7
2019-02-11T09:27:11.007Z,54.3
2019-02-11T09:28:01.069Z,53.8
2019-02-11T09:28:50.865Z,53.4
2019-02-11T09:29:41.176Z,52.9
2019-02-11T09:31:20.746Z,51.8
2019-02-11T09:32:11.084Z,51.2
2019-02-11T09:33:00.866Z,50.6
2019-02-11T09:33:51.266Z,50.1
2019-02-11T09:34:41.276Z,49.6
2019-02-11T09:35:31.601Z,49.1
2019-02-11T09:36:21.388Z,48.5
2019-02-11T09:37:11.736Z,47.9
2019-02-11T09:38:01.776Z,47.4
2019-02-11T09:38:51.288Z,46.8
2019-02-11T09:39:41.889Z,46.3
2019-02-11T09:40:31.685Z,45.8
2019-02-11T09:41:21.993Z,45.3
2019-02-11T09:42:12.113Z,44.8
2019-02-11T09:43:01.848Z,44.3
2019-02-11T09:43:51.923Z,43.8
2019-02-11T09:44:42.225Z,43.4
2019-02-11T09:45:32.018Z,42.9
2019-02-11T09:46:22.070Z,42.5
2019-02-11T09:47:12.417Z,42.1
2019-02-11T09:48:02.190Z,41.8
2019-02-11T09:48:52.253Z,41.4
2019-02-11T09:49:42.585Z,41.2
2019-02-11T09:50:32.365Z,40.9
2019-02-11T09:51:22.695Z,40.6
2019-02-11T09:52:12.487Z,40.3
2019-02-11T09:53:02.270Z,39.9
2019-02-11T09:53:52.882Z,39.6
2019-02-11T09:54:42.933Z,39.4
2019-02-11T09:55:32.700Z,39.1
2019-02-11T09:56:23.047Z,38.7
2019-02-11T09:57:13.094Z,38.3
2019-02-11T09:58:03.182Z,37.9
2019-02-11T09:58:52.793Z,37.6
2019-02-11T09:59:43.269Z,37.2
2019-02-11T10:00:32.784Z,36.9
2019-02-11T10:01:23.454Z,36.4
2019-02-11T10:02:13.455Z,36.1
2019-02-11T10:03:03.260Z,35.6
2019-02-11T10:03:53.312Z,35.2
2019-02-11T10:04:43.631Z,34.8
2019-02-11T10:07:10.821Z,33.7
2019-02-11T10:08:01.203Z,33.4
2019-02-11T10:08:51.222Z,33.1
2019-02-11T10:09:41.258Z,32.9
2019-02-11T10:10:31.333Z,32.8
2019-02-11T10:11:21.096Z,32.6
2019-02-11T10:12:10.964Z,32.4
2019-02-11T10:13:01.506Z,32.1
2019-02-11T10:13:51.553Z,32
2019-02-11T10:14:41.663Z,31.8
2019-02-11T10:15:31.411Z,31.6
2019-02-11T10:16:23.028Z,31.4
2019-02-11T10:17:11.778Z,31.3
2019-02-11T10:18:01.846Z,31
2019-02-11T10:18:51.901Z,30.8
2019-02-11T10:19:41.966Z,30.4
2019-02-11T10:20:32.030Z,30.1
2019-02-11T10:21:22.070Z,29.8
2019-02-11T10:22:11.848Z,29.5
2019-02-11T10:23:02.203Z,29.1
2019-02-11T10:23:52.252Z,28.8
2019-02-11T10:24:42.306Z,28.5
2019-02-11T10:25:32.372Z,28.3
2019-02-11T10:26:22.433Z,28
2019-02-11T10:27:12.210Z,27.7
2019-02-11T10:28:02.538Z,27.4
2019-02-11T10:28:52.330Z,27.2
2019-02-11T10:29:42.387Z,26.9
2019-02-11T10:30:32.455Z,26.7
2019-02-11T10:31:22.772Z,26.4
2019-02-11T10:32:12.860Z,26.2
2019-02-11T10:33:02.347Z,26
2019-02-11T10:33:52.942Z,25.8
2019-02-11T10:34:43.052Z,25.6
2019-02-11T10:35:33.059Z,25.6
2019-02-11T10:36:23.116Z,25.4
2019-02-11T10:37:12.894Z,25.4
2019-02-11T10:38:02.957Z,25.3
2019-02-11T10:38:52.752Z,25.2
2019-02-11T10:39:43.377Z,25.1
2019-02-11T10:40:33.134Z,24.9
2019-02-11T10:41:23.469Z,24.8
2019-02-11T10:42:13.522Z,24.7
2019-02-11T10:43:03.652Z,24.5
2019-02-11T10:43:53.647Z,24.4
2019-02-11T10:44:43.429Z,24.3
2019-02-11T10:45:38.276Z,24.3
2019-02-11T10:46:23.544Z,24.1
2019-02-11T10:47:13.309Z,24.1
2019-02-11T10:48:03.949Z,23.9
2019-02-11T10:48:53.726Z,23.9
2019-02-11T10:49:44.046Z,23.8
2019-02-11T10:50:34.168Z,23.7
2019-02-11T10:51:24.166Z,23.6
2019-02-11T10:52:14.216Z,23.6
2019-02-11T10:53:04.005Z,23.5
2019-02-11T10:53:54.076Z,23.4
2019-02-11T10:54:44.401Z,23.3
2019-02-11T10:55:34.182Z,23.1
2019-02-11T10:56:24.243Z,22.9
2019-02-11T10:57:14.301Z,22.8
2019-02-11T10:58:04.741Z,22.7
2019-02-11T10:58:54.415Z,22.6
2019-02-11T10:59:44.521Z,22.4
2019-02-11T11:00:34.805Z,22.4
2019-02-11T11:01:25.880Z,22.3
2019-02-11T11:02:14.652Z,22.2
2019-02-11T11:03:04.985Z,22.2
2019-02-11T11:03:55.033Z,22.1
2019-02-11T11:04:45.096Z,22.1
2019-02-11T11:05:35.150Z,22
2019-02-11T11:06:25.207Z,21.9
2019-02-11T11:07:15.273Z,21.9
2019-02-11T11:08:05.335Z,21.9
2019-02-11T11:08:55.392Z,21.8
2019-02-11T11:09:45.449Z,21.8
2019-02-11T11:10:35.497Z,21.8
2019-02-11T11:11:25.555Z,21.8
2019-02-11T11:12:14.802Z,21.8
2019-02-11T11:13:05.402Z,21.7
2019-02-11T11:13:55.467Z,21.7
2019-02-11T11:14:45.268Z,21.6
2019-02-11T11:15:35.862Z,21.6
2019-02-11T11:16:31.587Z,21.6
2019-02-11T11:17:15.972Z,21.5
2019-02-11T11:18:05.745Z,21.4
2019-02-11T11:18:56.085Z,21.4
2019-02-11T11:19:45.867Z,21.3
2019-02-11T11:20:35.647Z,21.2
2019-02-11T11:22:16.314Z,21.1
2019-02-11T11:23:06.379Z,21
2019-02-11T11:23:55.959Z,20.9
2019-02-11T11:24:46.221Z,20.9
2019-02-11T11:25:36.555Z,20.8
2019-02-11T11:26:26.611Z,20.7
2019-02-11T11:27:16.671Z,20.6
2019-02-11T11:28:06.727Z,20.5
2019-02-11T11:28:56.779Z,20.4
2019-02-11T11:29:46.839Z,20.3
2019-02-11T11:30:36.631Z,20.3